Kirriemuir, United Kingdom
Current Conditions -  °F | °C
As of 11:50 AM on Thursday 30 Oct 2014 (Local Time) from EGPN Reporting Station
Broken Clouds Broken Clouds  
Wind Chill: 11°   Ceiling: 2000
Heat Index: 11°   Visibility: 5mi
Dew Point: 11°   Wind: 1mph
Humidity: 100%   Direction: 90°E
Pressure: 29.88"   Gusts: NA
Location:  56.67°N, 3°W
Report Text: EGPN 301150Z 09001KT 8000 SCT008 BKN020 11/11 Q1012
Loading
Personal Weather Stations






























Interactive Weather Map
Tropical Storm Tracking
New forecast layout! Learn more

10-Day Weather Forecast

Advertisements
Track Severe Weather on mobile